createdAt,value
2022-10-03T00:05:00.304Z,98547.66
2022-10-03T00:10:34.037Z,98546.17
2022-10-03T00:16:04.453Z,98542.61
2022-10-03T00:21:35.236Z,98531.72
2022-10-03T00:27:07.747Z,98529.30
2022-10-03T00:32:48.863Z,98532.64
2022-10-03T00:38:18.578Z,98527.28
2022-10-03T00:43:51.373Z,98530.31
2022-10-03T00:48:56.132Z,98526.83
2022-10-03T00:54:15.648Z,98517.73
2022-10-03T00:59:23.337Z,98517.80
2022-10-03T01:04:44.039Z,98520.36
2022-10-03T01:10:35.256Z,98522.13
2022-10-03T01:16:00.553Z,98520.09
2022-10-03T01:21:08.535Z,98515.89
2022-10-03T01:26:44.556Z,98522.25
2022-10-03T01:32:11.741Z,98512.61
2022-10-03T01:37:32.309Z,98514.49
2022-10-03T01:42:43.964Z,98519.27
2022-10-03T01:47:55.671Z,98514.26
2022-10-03T01:53:13.595Z,98508.65
2022-10-03T01:58:31.388Z,98515.45
2022-10-03T02:03:37.984Z,98522.37
2022-10-03T02:09:05.348Z,98516.69
2022-10-03T02:14:24.657Z,98520.36
2022-10-03T02:19:42.459Z,98516.45
2022-10-03T02:24:57.405Z,98523.00
2022-10-03T02:30:14.493Z,98517.05
2022-10-03T02:36:01.817Z,98517.98
2022-10-03T02:41:39.445Z,98525.48
2022-10-03T02:47:18.804Z,98524.05
2022-10-03T02:53:07.678Z,98532.14
2022-10-03T02:58:42.911Z,98532.88
2022-10-03T03:04:15.388Z,98536.56
2022-10-03T03:09:43.715Z,98540.39
2022-10-03T03:15:34.055Z,98538.17
2022-10-03T03:20:48.069Z,98544.41
2022-10-03T03:26:15.222Z,98547.36
2022-10-03T03:31:29.954Z,98546.30
2022-10-03T03:36:48.993Z,98546.95
2022-10-03T03:41:56.898Z,98550.33
2022-10-03T03:47:10.641Z,98556.37
2022-10-03T03:52:35.167Z,98556.81
2022-10-03T03:57:44.059Z,98549.92
2022-10-03T04:03:05.273Z,98547.48
2022-10-03T04:08:28.612Z,98544.58
2022-10-03T04:14:08.171Z,98537.55
2022-10-03T04:19:26.125Z,98536.88
2022-10-03T04:24:30.711Z,98539.83
2022-10-03T04:29:56.511Z,98548.96
2022-10-03T04:35:04.470Z,98548.42
2022-10-03T04:40:25.863Z,98546.05
2022-10-03T04:45:45.930Z,98561.11
2022-10-03T04:51:07.540Z,98569.40
2022-10-03T04:56:44.691Z,98564.34
2022-10-03T05:02:18.470Z,98566.73
2022-10-03T05:07:42.573Z,98574.36
2022-10-03T05:12:59.542Z,98576.70
2022-10-03T05:18:26.979Z,98562.63
2022-10-03T05:23:38.076Z,98576.48
2022-10-03T05:29:04.194Z,98576.13
2022-10-03T05:34:17.106Z,98573.34
2022-10-03T05:39:56.581Z,98572.20
2022-10-03T05:45:21.637Z,98570.72
2022-10-03T05:50:29.259Z,98572.27
2022-10-03T05:55:42.980Z,98572.80
2022-10-03T06:01:00.650Z,98580.80
2022-10-03T06:06:20.895Z,98585.30
2022-10-03T06:12:03.237Z,98589.69
2022-10-03T06:17:10.859Z,98598.95
2022-10-03T06:22:32.688Z,98595.66
2022-10-03T06:28:12.398Z,98608.37
2022-10-03T06:33:56.117Z,98606.10
2022-10-03T06:39:52.495Z,98608.09
2022-10-03T06:45:16.365Z,98611.53
2022-10-03T06:50:28.308Z,98606.52
2022-10-03T06:55:46.854Z,98607.91
2022-10-03T07:01:13.690Z,98601.23
2022-10-03T07:06:46.237Z,98618.58
2022-10-03T07:12:20.145Z,98619.10
2022-10-03T07:17:50.705Z,98619.02
2022-10-03T07:23:17.490Z,98618.35
2022-10-03T07:28:49.780Z,98620.53
2022-10-03T07:34:27.199Z,98634.42
2022-10-03T07:39:47.615Z,98635.19
2022-10-03T07:45:31.340Z,98637.20
2022-10-03T07:50:56.889Z,98638.06
2022-10-03T07:56:26.415Z,98639.02
2022-10-03T08:01:48.190Z,98638.50
2022-10-03T08:07:28.826Z,98632.34
2022-10-03T08:12:45.957Z,98630.23
2022-10-03T08:18:32.346Z,98630.39
2022-10-03T08:23:49.337Z,98633.55
2022-10-03T08:29:13.442Z,98635.05
2022-10-03T08:34:36.846Z,98632.38
2022-10-03T08:39:57.943Z,98631.77
2022-10-03T08:45:30.842Z,98626.39
2022-10-03T08:50:48.096Z,98628.13
2022-10-03T08:56:27.690Z,98634.28
2022-10-03T09:01:40.998Z,98639.93
2022-10-03T09:07:18.077Z,98638.50
2022-10-03T09:12:45.772Z,98638.18
2022-10-03T09:18:01.984Z,98641.36
2022-10-03T09:23:41.613Z,98634.64
2022-10-03T09:28:50.481Z,98645.27
2022-10-03T09:33:55.446Z,98632.48
2022-10-03T09:39:08.169Z,98636.14
2022-10-03T09:44:54.446Z,98650.45
2022-10-03T09:49:56.229Z,98648.06
2022-10-03T09:55:14.309Z,98650.48
2022-10-03T10:00:24.074Z,98641.76
2022-10-03T10:05:54.579Z,98646.92
2022-10-03T10:11:12.465Z,98644.25
2022-10-03T10:16:23.356Z,98649.66
2022-10-03T10:21:34.813Z,98639.30
2022-10-03T10:27:11.061Z,98652.96
2022-10-03T10:32:43.617Z,98652.27
2022-10-03T10:37:55.137Z,98655.25
2022-10-03T10:43:18.030Z,98653.19
2022-10-03T10:48:44.754Z,98652.35
2022-10-03T10:54:20.561Z,98656.97
2022-10-03T10:59:53.649Z,98662.34
2022-10-03T11:05:23.808Z,98674.00
2022-10-03T11:10:34.616Z,98664.56
2022-10-03T11:16:20.749Z,98666.41
2022-10-03T11:22:13.952Z,98663.91
2022-10-03T11:27:39.987Z,98673.01
2022-10-03T11:33:33.014Z,98675.63
2022-10-03T11:38:41.337Z,98674.66
2022-10-03T11:44:15.560Z,98682.87
2022-10-03T11:49:55.258Z,98681.88
2022-10-03T11:55:15.951Z,98684.70
2022-10-03T12:00:21.051Z,98693.66
2022-10-03T12:05:47.462Z,98693.38
2022-10-03T12:11:18.905Z,98696.86
2022-10-03T12:17:16.732Z,98698.11
2022-10-03T12:22:53.009Z,98701.71
2022-10-03T12:27:57.856Z,98709.98
2022-10-03T12:33:21.573Z,98708.70
2022-10-03T12:38:51.412Z,98709.44
2022-10-03T12:44:19.643Z,98720.27
2022-10-03T12:49:30.347Z,98722.33
2022-10-03T12:55:05.735Z,98732.77
2022-10-03T13:00:21.033Z,98720.16
2022-10-03T13:05:41.597Z,98723.36
2022-10-03T13:10:54.698Z,98729.84
2022-10-03T13:16:13.547Z,98725.91
2022-10-03T13:21:44.900Z,98726.93
2022-10-03T13:27:05.508Z,98722.15
2022-10-03T13:32:13.333Z,98723.50
2022-10-03T13:37:22.650Z,98717.42
2022-10-03T13:42:39.418Z,98718.64
2022-10-03T13:48:14.890Z,98723.03
2022-10-03T13:53:50.326Z,98712.88
2022-10-03T13:59:25.578Z,98710.30
2022-10-03T14:04:57.121Z,98713.21
2022-10-03T14:10:10.527Z,98722.09
2022-10-03T14:15:27.920Z,98722.10
2022-10-03T14:20:41.438Z,98728.45
2022-10-03T14:26:05.645Z,98730.48
2022-10-03T14:31:35.025Z,98734.23
2022-10-03T14:36:49.821Z,98741.70
2022-10-03T14:41:52.203Z,98745.64
2022-10-03T14:47:09.083Z,98770.77
2022-10-03T14:52:26.981Z,98773.77
2022-10-03T14:57:39.686Z,98781.23
2022-10-03T15:02:51.004Z,98783.94
2022-10-03T15:08:13.693Z,98777.45
2022-10-03T15:13:22.938Z,98789.71
2022-10-03T15:18:33.645Z,98787.30
2022-10-03T15:23:43.897Z,98787.55
2022-10-03T15:28:50.732Z,98782.94
2022-10-03T15:33:54.374Z,98784.41
2022-10-03T15:39:01.103Z,98788.81
2022-10-03T15:44:13.536Z,98796.81
2022-10-03T15:49:30.464Z,98786.40
2022-10-03T15:54:38.795Z,98783.63
2022-10-03T15:59:45.446Z,98794.45
2022-10-03T16:04:48.940Z,98806.91
2022-10-03T16:10:06.937Z,98817.27
2022-10-03T16:15:21.327Z,98814.63
2022-10-03T16:20:29.813Z,98816.37
2022-10-03T16:25:49.310Z,98819.40
2022-10-03T16:31:00.049Z,98820.08
2022-10-03T16:36:05.462Z,98820.44
2022-10-03T16:41:10.428Z,98821.88
2022-10-03T16:46:21.277Z,98821.81
2022-10-03T16:51:46.917Z,98819.75
2022-10-03T16:56:57.024Z,98820.02
2022-10-03T17:02:06.601Z,98823.50
2022-10-03T17:07:15.636Z,98819.21
2022-10-03T17:12:39.043Z,98807.58
2022-10-03T17:18:34.909Z,98807.41
2022-10-03T17:23:49.384Z,98820.73
2022-10-03T17:29:08.415Z,98838.46
2022-10-03T17:34:23.973Z,98834.36
2022-10-03T17:39:35.137Z,98836.63
2022-10-03T17:45:09.407Z,98833.49
2022-10-03T17:50:17.041Z,98830.67
2022-10-03T17:55:27.405Z,98839.45
2022-10-03T18:00:45.264Z,98839.46
2022-10-03T18:05:52.677Z,98841.40
2022-10-03T18:11:05.178Z,98843.77
2022-10-03T18:16:39.127Z,98843.64
2022-10-03T18:21:44.492Z,98841.11
2022-10-03T18:26:54.560Z,98845.38
2022-10-03T18:32:02.114Z,98847.84
2022-10-03T18:37:25.703Z,98847.15
2022-10-03T18:42:29.874Z,98844.85
2022-10-03T18:47:44.080Z,98845.06
2022-10-03T18:52:52.789Z,98845.77
2022-10-03T18:58:09.778Z,98852.61
2022-10-03T19:03:16.237Z,98858.55
2022-10-03T19:08:30.126Z,98857.67
2022-10-03T19:13:37.193Z,98863.30
2022-10-03T19:19:01.009Z,98867.40
2022-10-03T19:24:13.271Z,98873.27
2022-10-03T19:29:23.201Z,98874.98
2022-10-03T19:34:38.171Z,98881.36
2022-10-03T19:39:41.130Z,98883.38
2022-10-03T19:44:44.331Z,98884.02
2022-10-03T19:50:04.281Z,98881.31
2022-10-03T19:55:33.634Z,98882.02
2022-10-03T20:01:00.372Z,98883.34
2022-10-03T20:06:11.494Z,98886.30
2022-10-03T20:11:39.899Z,98888.84
2022-10-03T20:16:46.644Z,98882.58
2022-10-03T20:21:57.115Z,98884.78
2022-10-03T20:27:30.453Z,98881.70
2022-10-03T20:32:42.194Z,98883.52
2022-10-03T20:37:52.129Z,98879.71
2022-10-03T20:43:09.673Z,98880.92
2022-10-03T20:48:22.536Z,98876.18
2022-10-03T20:53:27.502Z,98877.85
2022-10-03T20:58:42.282Z,98873.59
2022-10-03T21:04:20.035Z,98875.86
2022-10-03T21:09:39.347Z,98871.75
2022-10-03T21:14:43.666Z,98874.03
2022-10-03T21:20:01.301Z,98871.67
2022-10-03T21:25:08.554Z,98870.89
2022-10-03T21:30:18.842Z,98877.20
2022-10-03T21:35:29.200Z,98876.44
2022-10-03T21:40:49.122Z,98877.19
2022-10-03T21:46:15.528Z,98878.11
2022-10-03T21:51:49.348Z,98880.06
2022-10-03T21:57:12.875Z,98880.36
2022-10-03T22:02:37.479Z,98877.36
2022-10-03T22:07:41.985Z,98877.37
2022-10-03T22:13:07.317Z,98878.72
2022-10-03T22:18:15.468Z,98873.45
2022-10-03T22:23:23.505Z,98864.38
2022-10-03T22:28:46.746Z,98863.90
2022-10-03T22:34:08.908Z,98861.66
2022-10-03T22:39:15.528Z,98859.79
2022-10-03T22:44:21.632Z,98866.98
2022-10-03T22:49:35.824Z,98867.65
2022-10-03T22:54:40.787Z,98862.85
2022-10-03T22:59:48.534Z,98859.88
2022-10-03T23:04:55.841Z,98862.98
2022-10-03T23:10:12.948Z,98861.03
2022-10-03T23:15:36.730Z,98860.73
2022-10-03T23:20:59.733Z,98852.04
2022-10-03T23:26:23.261Z,98855.82
2022-10-03T23:32:03.720Z,98854.17
2022-10-03T23:37:11.221Z,98854.66
2022-10-03T23:42:33.233Z,98858.48
2022-10-03T23:47:47.078Z,98854.92
2022-10-03T23:52:58.086Z,98857.43
2022-10-03T23:58:00.450Z,98853.08
